sensor_id;sensor_type;location;lat;lon;timestamp;pressure;altitude;pressure_sealevel;temperature;humidity
28428;BME280;15662;49.128;8.520;2024-02-21T00:00:07;101504.47;;;14.67;47.44
28428;BME280;15662;49.128;8.520;2024-02-21T00:02:34;101503.53;;;14.70;47.47
28428;BME280;15662;49.128;8.520;2024-02-21T00:05:02;101494.56;;;14.73;47.32
28428;BME280;15662;49.128;8.520;2024-02-21T00:07:29;101491.03;;;14.72;47.37
28428;BME280;15662;49.128;8.520;2024-02-21T00:09:57;101499.88;;;14.74;47.38
28428;BME280;15662;49.128;8.520;2024-02-21T00:12:24;101495.31;;;14.78;47.36
28428;BME280;15662;49.128;8.520;2024-02-21T00:14:51;101489.13;;;14.77;47.23
28428;BME280;15662;49.128;8.520;2024-02-21T00:17:18;101485.50;;;14.80;47.29
28428;BME280;15662;49.128;8.520;2024-02-21T00:19:45;101475.75;;;14.79;47.35
28428;BME280;15662;49.128;8.520;2024-02-21T00:22:12;101473.09;;;14.79;47.40
28428;BME280;15662;49.128;8.520;2024-02-21T00:24:39;101475.69;;;14.80;47.26
28428;BME280;15662;49.128;8.520;2024-02-21T00:27:07;101468.53;;;14.82;47.34
28428;BME280;15662;49.128;8.520;2024-02-21T00:29:34;101466.81;;;14.80;47.38
28428;BME280;15662;49.128;8.520;2024-02-21T00:32:01;101466.75;;;14.83;47.20
28428;BME280;15662;49.128;8.520;2024-02-21T00:34:29;101465.84;;;14.84;47.37
28428;BME280;15662;49.128;8.520;2024-02-21T00:36:56;101459.63;;;14.83;47.24
28428;BME280;15662;49.128;8.520;2024-02-21T00:39:24;101456.91;;;14.85;47.26
28428;BME280;15662;49.128;8.520;2024-02-21T00:41:51;101440.97;;;14.82;47.31
28428;BME280;15662;49.128;8.520;2024-02-21T00:44:18;101442.72;;;14.83;47.36
28428;BME280;15662;49.128;8.520;2024-02-21T00:46:46;101437.41;;;14.81;47.25
28428;BME280;15662;49.128;8.520;2024-02-21T00:49:14;101430.38;;;14.79;47.55
28428;BME280;15662;49.128;8.520;2024-02-21T00:51:41;101429.38;;;14.83;47.77
28428;BME280;15662;49.128;8.520;2024-02-21T00:54:08;101430.28;;;14.82;47.58
28428;BME280;15662;49.128;8.520;2024-02-21T00:56:35;101421.53;;;14.77;47.66
28428;BME280;15662;49.128;8.520;2024-02-21T00:59:02;101414.38;;;14.79;47.79
28428;BME280;15662;49.128;8.520;2024-02-21T01:01:30;101416.16;;;14.78;47.81
28428;BME280;15662;49.128;8.520;2024-02-21T01:03:57;101411.69;;;14.79;47.93
28428;BME280;15662;49.128;8.520;2024-02-21T01:06:25;101401.03;;;14.77;47.83
28428;BME280;15662;49.128;8.520;2024-02-21T01:08:52;101412.69;;;14.75;48.02
28428;BME280;15662;49.128;8.520;2024-02-21T01:11:19;101410.94;;;14.74;48.12
28428;BME280;15662;49.128;8.520;2024-02-21T01:13:46;101396.75;;;14.71;48.06
28428;BME280;15662;49.128;8.520;2024-02-21T01:16:14;101389.59;;;14.72;48.17
28428;BME280;15662;49.128;8.520;2024-02-21T01:18:41;101387.03;;;14.69;48.22
28428;BME280;15662;49.128;8.520;2024-02-21T01:21:09;101381.72;;;14.67;48.33
28428;BME280;15662;49.128;8.520;2024-02-21T01:23:37;101377.38;;;14.65;48.41
28428;BME280;15662;49.128;8.520;2024-02-21T01:26:05;101365.88;;;14.61;48.45
28428;BME280;15662;49.128;8.520;2024-02-21T01:28:32;101369.44;;;14.62;48.57
28428;BME280;15662;49.128;8.520;2024-02-21T01:30:59;101357.94;;;14.60;48.53
28428;BME280;15662;49.128;8.520;2024-02-21T01:33:26;101347.38;;;14.55;48.55
28428;BME280;15662;49.128;8.520;2024-02-21T01:35:54;101352.72;;;14.55;48.55
28428;BME280;15662;49.128;8.520;2024-02-21T01:38:21;101351.09;;;14.50;48.62
28428;BME280;15662;49.128;8.520;2024-02-21T01:40:48;101354.69;;;14.49;48.70
28428;BME280;15662;49.128;8.520;2024-02-21T01:43:17;101348.50;;;14.45;48.64
28428;BME280;15662;49.128;8.520;2024-02-21T01:45:50;101353.00;;;14.43;48.57
28428;BME280;15662;49.128;8.520;2024-02-21T01:48:18;101353.13;;;14.38;48.61
28428;BME280;15662;49.128;8.520;2024-02-21T01:50:46;101354.06;;;14.36;48.79
28428;BME280;15662;49.128;8.520;2024-02-21T01:53:21;101353.16;;;14.37;48.70
28428;BME280;15662;49.128;8.520;2024-02-21T01:55:49;101355.88;;;14.35;48.70
28428;BME280;15662;49.128;8.520;2024-02-21T01:58:17;101347.88;;;14.35;48.77
28428;BME280;15662;49.128;8.520;2024-02-21T02:00:47;101357.63;;;14.36;48.82
28428;BME280;15662;49.128;8.520;2024-02-21T02:03:15;101351.47;;;14.34;48.67
28428;BME280;15662;49.128;8.520;2024-02-21T02:05:49;101346.94;;;14.36;48.61
28428;BME280;15662;49.128;8.520;2024-02-21T02:08:18;101352.34;;;14.35;48.62
28428;BME280;15662;49.128;8.520;2024-02-21T02:10:46;101353.31;;;14.31;48.80
28428;BME280;15662;49.128;8.520;2024-02-21T02:13:14;101338.31;;;14.27;48.75
28428;BME280;15662;49.128;8.520;2024-02-21T02:15:47;101336.41;;;14.32;48.64
28428;BME280;15662;49.128;8.520;2024-02-21T02:18:16;101338.25;;;14.30;48.79
28428;BME280;15662;49.128;8.520;2024-02-21T02:20:44;101324.91;;;14.30;48.73
28428;BME280;15662;49.128;8.520;2024-02-21T02:25:51;101317.72;;;14.32;48.70
28428;BME280;15662;49.128;8.520;2024-02-21T02:28:22;101320.41;;;14.32;48.76
28428;BME280;15662;49.128;8.520;2024-02-21T02:30:49;101317.78;;;14.30;48.87
28428;BME280;15662;49.128;8.520;2024-02-21T02:33:17;101313.38;;;14.28;48.72
28428;BME280;15662;49.128;8.520;2024-02-21T02:35:45;101311.69;;;14.25;48.61
28428;BME280;15662;49.128;8.520;2024-02-21T02:38:13;101312.69;;;14.21;48.76
28428;BME280;15662;49.128;8.520;2024-02-21T02:40:41;101305.63;;;14.18;48.70
28428;BME280;15662;49.128;8.520;2024-02-21T02:43:09;101295.84;;;14.19;48.78
28428;BME280;15662;49.128;8.520;2024-02-21T02:45:36;101288.72;;;14.19;48.84
28428;BME280;15662;49.128;8.520;2024-02-21T02:48:04;101278.94;;;14.18;48.66
28428;BME280;15662;49.128;8.520;2024-02-21T02:50:32;101283.28;;;14.23;48.59
28428;BME280;15662;49.128;8.520;2024-02-21T02:52:59;101280.59;;;14.24;48.56
28428;BME280;15662;49.128;8.520;2024-02-21T02:55:27;101267.22;;;14.26;48.53
28428;BME280;15662;49.128;8.520;2024-02-21T02:57:55;101267.22;;;14.26;48.52
28428;BME280;15662;49.128;8.520;2024-02-21T03:00:23;101269.94;;;14.24;48.45
28428;BME280;15662;49.128;8.520;2024-02-21T03:02:50;101265.47;;;14.25;48.45
28428;BME280;15662;49.128;8.520;2024-02-21T03:05:21;101263.63;;;14.27;48.46
28428;BME280;15662;49.128;8.520;2024-02-21T03:07:49;101253.09;;;14.22;48.56
28428;BME280;15662;49.128;8.520;2024-02-21T03:10:17;101247.75;;;14.22;48.36
28428;BME280;15662;49.128;8.520;2024-02-21T03:12:45;101244.28;;;14.18;48.27
28428;BME280;15662;49.128;8.520;2024-02-21T03:15:13;101252.28;;;14.20;48.42
28428;BME280;15662;49.128;8.520;2024-02-21T03:17:41;101241.59;;;14.20;48.25
28428;BME280;15662;49.128;8.520;2024-02-21T03:20:09;101236.28;;;14.20;48.34
28428;BME280;15662;49.128;8.520;2024-02-21T03:22:40;101234.53;;;14.19;48.36
28428;BME280;15662;49.128;8.520;2024-02-21T03:25:09;101239.88;;;14.17;48.20
28428;BME280;15662;49.128;8.520;2024-02-21T03:27:38;101234.66;;;14.14;48.35
28428;BME280;15662;49.128;8.520;2024-02-21T03:30:06;101224.00;;;14.13;48.06
28428;BME280;15662;49.128;8.520;2024-02-21T03:32:34;101212.47;;;14.12;48.36
28428;BME280;15662;49.128;8.520;2024-02-21T03:35:01;101226.66;;;14.13;48.31
28428;BME280;15662;49.128;8.520;2024-02-21T03:37:28;101223.13;;;14.14;48.41
28428;BME280;15662;49.128;8.520;2024-02-21T03:39:56;101218.56;;;14.17;48.29
28428;BME280;15662;49.128;8.520;2024-02-21T03:42:23;101211.41;;;14.18;48.40
28428;BME280;15662;49.128;8.520;2024-02-21T03:44:50;101205.16;;;14.20;48.25
28428;BME280;15662;49.128;8.520;2024-02-21T03:47:17;101213.94;;;14.24;48.20
28428;BME280;15662;49.128;8.520;2024-02-21T03:49:44;101197.91;;;14.26;48.19
28428;BME280;15662;49.128;8.520;2024-02-21T03:52:12;101205.91;;;14.26;48.11
28428;BME280;15662;49.128;8.520;2024-02-21T03:54:39;101212.91;;;14.28;48.07
28428;BME280;15662;49.128;8.520;2024-02-21T03:57:06;101220.91;;;14.30;48.14
28428;BME280;15662;49.128;8.520;2024-02-21T03:59:33;101213.72;;;14.32;48.00
28428;BME280;15662;49.128;8.520;2024-02-21T04:02:00;101216.38;;;14.32;48.08
28428;BME280;15662;49.128;8.520;2024-02-21T04:04:28;101223.50;;;14.31;47.85
28428;BME280;15662;49.128;8.520;2024-02-21T04:06:55;101220.91;;;14.28;47.50
28428;BME280;15662;49.128;8.520;2024-02-21T04:09:22;101218.31;;;14.27;47.70
28428;BME280;15662;49.128;8.520;2024-02-21T04:11:49;101225.47;;;14.25;47.60
28428;BME280;15662;49.128;8.520;2024-02-21T04:14:17;101240.63;;;14.24;47.75
28428;BME280;15662;49.128;8.520;2024-02-21T04:16:44;101236.28;;;14.20;47.64
28428;BME280;15662;49.128;8.520;2024-02-21T04:19:11;101237.25;;;14.16;47.64
28428;BME280;15662;49.128;8.520;2024-02-21T04:21:38;101231.13;;;14.12;47.71
28428;BME280;15662;49.128;8.520;2024-02-21T04:24:06;101242.72;;;14.11;47.63
28428;BME280;15662;49.128;8.520;2024-02-21T04:26:34;101226.78;;;14.10;47.72
28428;BME280;15662;49.128;8.520;2024-02-21T04:29:01;101222.38;;;14.07;47.53
28428;BME280;15662;49.128;8.520;2024-02-21T04:31:29;101218.91;;;14.04;47.62
28428;BME280;15662;49.128;8.520;2024-02-21T04:33:58;101218.09;;;14.02;47.63
28428;BME280;15662;49.128;8.520;2024-02-21T04:36:26;101222.59;;;14.00;47.51
28428;BME280;15662;49.128;8.520;2024-02-21T04:38:53;101220.00;;;13.97;47.63
28428;BME280;15662;49.128;8.520;2024-02-21T04:41:20;101221.84;;;13.94;47.52
28428;BME280;15662;49.128;8.520;2024-02-21T04:43:47;101226.31;;;13.94;47.65
28428;BME280;15662;49.128;8.520;2024-02-21T04:46:15;101208.59;;;13.91;47.59
28428;BME280;15662;49.128;8.520;2024-02-21T04:48:45;101202.38;;;13.91;47.63
28428;BME280;15662;49.128;8.520;2024-02-21T04:51:12;101190.91;;;13.87;47.55
28428;BME280;15662;49.128;8.520;2024-02-21T04:53:40;101190.91;;;13.87;47.59
28428;BME280;15662;49.128;8.520;2024-02-21T04:56:08;101181.19;;;13.86;47.73
28428;BME280;15662;49.128;8.520;2024-02-21T04:58:39;101173.19;;;13.86;47.49
28428;BME280;15662;49.128;8.520;2024-02-21T05:01:07;101172.44;;;13.81;47.66
28428;BME280;15662;49.128;8.520;2024-02-21T05:03:35;101163.56;;;13.81;47.52
28428;BME280;15662;49.128;8.520;2024-02-21T05:06:02;101158.13;;;13.84;47.58
28428;BME280;15662;49.128;8.520;2024-02-21T05:08:30;101158.13;;;13.84;47.52
28428;BME280;15662;49.128;8.520;2024-02-21T05:10:57;101152.78;;;13.85;47.53
28428;BME280;15662;49.128;8.520;2024-02-21T05:13:24;101144.75;;;13.87;47.45
28428;BME280;15662;49.128;8.520;2024-02-21T05:15:52;101143.00;;;13.86;47.53
28428;BME280;15662;49.128;8.520;2024-02-21T05:18:20;101142.13;;;13.85;47.40
28428;BME280;15662;49.128;8.520;2024-02-21T05:20:47;101143.94;;;13.83;47.44
28428;BME280;15662;49.128;8.520;2024-02-21T05:23:15;101141.44;;;13.77;47.41
28428;BME280;15662;49.128;8.520;2024-02-21T05:25:42;101147.72;;;13.76;47.38
28428;BME280;15662;49.128;8.520;2024-02-21T05:28:09;101141.56;;;13.73;47.47
28428;BME280;15662;49.128;8.520;2024-02-21T05:30:36;101150.56;;;13.68;47.52
28428;BME280;15662;49.128;8.520;2024-02-21T05:33:05;101142.66;;;13.65;47.41
28428;BME280;15662;49.128;8.520;2024-02-21T05:35:33;101142.72;;;13.62;47.45
28428;BME280;15662;49.128;8.520;2024-02-21T05:38:01;101149.09;;;13.57;47.46
28428;BME280;15662;49.128;8.520;2024-02-21T05:40:28;101146.53;;;13.52;47.33
28428;BME280;15662;49.128;8.520;2024-02-21T05:42:55;101145.69;;;13.52;47.51
28428;BME280;15662;49.128;8.520;2024-02-21T05:45:23;101127.94;;;13.51;47.41
28428;BME280;15662;49.128;8.520;2024-02-21T05:47:50;101135.97;;;13.49;47.47
28428;BME280;15662;49.128;8.520;2024-02-21T05:50:18;101125.34;;;13.48;47.47
28428;BME280;15662;49.128;8.520;2024-02-21T05:52:45;101121.88;;;13.46;47.41
28428;BME280;15662;49.128;8.520;2024-02-21T05:55:12;101121.03;;;13.43;47.50
28428;BME280;15662;49.128;8.520;2024-02-21T05:57:40;101128.13;;;13.43;47.47
28428;BME280;15662;49.128;8.520;2024-02-21T06:00:07;101131.75;;;13.40;47.50
28428;BME280;15662;49.128;8.520;2024-02-21T06:02:44;101129.13;;;13.39;47.47
28428;BME280;15662;49.128;8.520;2024-02-21T06:05:11;101123.84;;;13.37;47.42
28428;BME280;15662;49.128;8.520;2024-02-21T06:07:38;101123.88;;;13.36;47.45
28428;BME280;15662;49.128;8.520;2024-02-21T06:10:07;101133.66;;;13.35;47.34
28428;BME280;15662;49.128;8.520;2024-02-21T06:12:35;101131.94;;;13.33;47.42
28428;BME280;15662;49.128;8.520;2024-02-21T06:15:02;101125.69;;;13.34;47.45
28428;BME280;15662;49.128;8.520;2024-02-21T06:17:29;101120.38;;;13.34;47.47
28428;BME280;15662;49.128;8.520;2024-02-21T06:19:57;101121.25;;;13.34;47.43
28428;BME280;15662;49.128;8.520;2024-02-21T06:22:24;101111.50;;;13.35;47.53
28428;BME280;15662;49.128;8.520;2024-02-21T06:24:51;101100.03;;;13.31;47.45
28428;BME280;15662;49.128;8.520;2024-02-21T06:27:20;101111.56;;;13.32;47.54
28428;BME280;15662;49.128;8.520;2024-02-21T06:29:47;101113.38;;;13.30;47.36
28428;BME280;15662;49.128;8.520;2024-02-21T06:32:14;101117.81;;;13.29;47.43
28428;BME280;15662;49.128;8.520;2024-02-21T06:34:41;101109.94;;;13.25;47.57
28428;BME280;15662;49.128;8.520;2024-02-21T06:37:09;101107.34;;;13.23;47.53
28428;BME280;15662;49.128;8.520;2024-02-21T06:39:37;101099.41;;;13.20;47.63
28428;BME280;15662;49.128;8.520;2024-02-21T06:42:04;101110.06;;;13.20;47.82
28428;BME280;15662;49.128;8.520;2024-02-21T06:44:32;101101.28;;;13.16;47.76
28428;BME280;15662;49.128;8.520;2024-02-21T06:47:03;101096.94;;;13.12;47.88
28428;BME280;15662;49.128;8.520;2024-02-21T06:49:30;101099.53;;;13.15;47.91
28428;BME280;15662;49.128;8.520;2024-02-21T06:51:58;101105.66;;;13.17;47.76
28428;BME280;15662;49.128;8.520;2024-02-21T06:54:25;101098.59;;;13.16;47.88
28428;BME280;15662;49.128;8.520;2024-02-21T06:56:52;101101.28;;;13.16;48.10
28428;BME280;15662;49.128;8.520;2024-02-21T06:59:19;101106.50;;;13.20;47.90
28428;BME280;15662;49.128;8.520;2024-02-21T07:01:53;101110.03;;;13.22;47.78
28428;BME280;15662;49.128;8.520;2024-02-21T07:04:21;101111.81;;;13.20;48.07
28428;BME280;15662;49.128;8.520;2024-02-21T07:06:48;101111.91;;;13.16;48.19
28428;BME280;15662;49.128;8.520;2024-02-21T07:09:15;101109.25;;;13.15;47.99
28428;BME280;15662;49.128;8.520;2024-02-21T07:11:43;101110.16;;;13.15;48.11
28428;BME280;15662;49.128;8.520;2024-02-21T07:14:10;101101.28;;;13.15;48.23
28428;BME280;15662;49.128;8.520;2024-02-21T07:16:37;101109.25;;;13.16;48.30
28428;BME280;15662;49.128;8.520;2024-02-21T07:19:05;101111.91;;;13.16;48.23
28428;BME280;15662;49.128;8.520;2024-02-21T07:21:32;101103.06;;;13.16;48.52
28428;BME280;15662;49.128;8.520;2024-02-21T07:24:00;101108.34;;;13.17;48.53
28428;BME280;15662;49.128;8.520;2024-02-21T07:26:27;101109.16;;;13.20;48.48
28428;BME280;15662;49.128;8.520;2024-02-21T07:28:54;101096.75;;;13.18;48.53
28428;BME280;15662;49.128;8.520;2024-02-21T07:31:21;101100.28;;;13.21;48.42
28428;BME280;15662;49.128;8.520;2024-02-21T07:33:48;101094.03;;;13.23;48.50
28428;BME280;15662;49.128;8.520;2024-02-21T07:36:23;101099.22;;;13.28;48.56
28428;BME280;15662;49.128;8.520;2024-02-21T07:38:51;101093.88;;;13.29;48.47
28428;BME280;15662;49.128;8.520;2024-02-21T07:41:18;101088.41;;;13.35;48.55
28428;BME280;15662;49.128;8.520;2024-02-21T07:43:45;101093.63;;;13.40;48.68
28428;BME280;15662;49.128;8.520;2024-02-21T07:46:13;101097.97;;;13.42;48.58
28428;BME280;15662;49.128;8.520;2024-02-21T07:48:40;101101.50;;;13.43;48.62
28428;BME280;15662;49.128;8.520;2024-02-21T07:51:07;101098.66;;;13.49;48.63
28428;BME280;15662;49.128;8.520;2024-02-21T07:53:34;101095.94;;;13.52;48.62
28428;BME280;15662;49.128;8.520;2024-02-21T07:56:01;101102.03;;;13.57;48.71
28428;BME280;15662;49.128;8.520;2024-02-21T07:58:29;101094.78;;;13.62;48.65
28428;BME280;15662;49.128;8.520;2024-02-21T08:00:56;101099.03;;;13.70;48.61
28428;BME280;15662;49.128;8.520;2024-02-21T08:03:23;101086.47;;;13.75;48.61
28428;BME280;15662;49.128;8.520;2024-02-21T08:05:52;101078.44;;;13.76;48.68
28428;BME280;15662;49.128;8.520;2024-02-21T08:08:20;101086.28;;;13.81;48.69
28428;BME280;15662;49.128;8.520;2024-02-21T08:10:50;101075.53;;;13.84;48.60
28428;BME280;15662;49.128;8.520;2024-02-21T08:13:17;101077.19;;;13.88;48.74
28428;BME280;15662;49.128;8.520;2024-02-21T08:15:45;101068.22;;;13.92;48.69
28428;BME280;15662;49.128;8.520;2024-02-21T08:18:12;101072.47;;;13.98;48.66
28428;BME280;15662;49.128;8.520;2024-02-21T08:20:39;101066.16;;;14.02;48.80
28428;BME280;15662;49.128;8.520;2024-02-21T08:23:07;101066.88;;;14.07;48.68
28428;BME280;15662;49.128;8.520;2024-02-21T08:25:34;101062.34;;;14.10;48.59
28428;BME280;15662;49.128;8.520;2024-02-21T08:28:01;101056.91;;;14.13;48.69
28428;BME280;15662;49.128;8.520;2024-02-21T08:30:31;101058.56;;;14.19;48.70
28428;BME280;15662;49.128;8.520;2024-02-21T08:32:58;101053.09;;;14.24;48.40
28428;BME280;15662;49.128;8.520;2024-02-21T08:35:27;101055.63;;;14.27;48.63
28428;BME280;15662;49.128;8.520;2024-02-21T08:37:55;101036.03;;;14.28;48.36
28428;BME280;15662;49.128;8.520;2024-02-21T08:40:22;101039.41;;;14.34;48.55
28428;BME280;15662;49.128;8.520;2024-02-21T08:42:49;101025.97;;;14.37;48.32
28428;BME280;15662;49.128;8.520;2024-02-21T08:45:17;101034.75;;;14.41;48.34
28428;BME280;15662;49.128;8.520;2024-02-21T08:47:45;101031.16;;;14.42;48.24
28428;BME280;15662;49.128;8.520;2024-02-21T08:50:15;101036.34;;;14.46;48.25
28428;BME280;15662;49.128;8.520;2024-02-21T08:52:54;101040.81;;;14.48;48.28
28428;BME280;15662;49.128;8.520;2024-02-21T08:55:22;101031.91;;;14.49;48.24
28428;BME280;15662;49.128;8.520;2024-02-21T08:57:49;101028.19;;;14.53;48.23
28428;BME280;15662;49.128;8.520;2024-02-21T09:00:17;101028.97;;;14.56;48.19
28428;BME280;15662;49.128;8.520;2024-02-21T09:02:44;101026.22;;;14.59;48.16
28428;BME280;15662;49.128;8.520;2024-02-21T09:05:12;101024.44;;;14.60;48.07
28428;BME280;15662;49.128;8.520;2024-02-21T09:07:39;101027.09;;;14.60;48.25
28428;BME280;15662;49.128;8.520;2024-02-21T09:10:07;101027.88;;;14.63;48.06
28428;BME280;15662;49.128;8.520;2024-02-21T09:12:35;101026.03;;;14.65;47.97
28428;BME280;15662;49.128;8.520;2024-02-21T09:15:02;101014.38;;;14.68;48.02
28428;BME280;15662;49.128;8.520;2024-02-21T09:17:30;101010.72;;;14.70;48.06
28428;BME280;15662;49.128;8.520;2024-02-21T09:19:57;101008.84;;;14.74;48.01
28428;BME280;15662;49.128;8.520;2024-02-21T09:22:30;100989.22;;;14.75;48.18
28428;BME280;15662;49.128;8.520;2024-02-21T09:24:58;100989.88;;;14.82;48.08
28428;BME280;15662;49.128;8.520;2024-02-21T09:27:25;100989.66;;;14.89;48.09
28428;BME280;15662;49.128;8.520;2024-02-21T09:29:53;100987.63;;;14.96;48.22
28428;BME280;15662;49.128;8.520;2024-02-21T09:32:20;100986.56;;;15.02;48.09
28428;BME280;15662;49.128;8.520;2024-02-21T09:34:47;100988.13;;;15.07;48.00
28428;BME280;15662;49.128;8.520;2024-02-21T09:37:15;100979.97;;;15.12;47.89
28428;BME280;15662;49.128;8.520;2024-02-21T09:39:42;100987.81;;;15.16;47.90
28428;BME280;15662;49.128;8.520;2024-02-21T09:42:11;100983.19;;;15.21;47.84
28428;BME280;15662;49.128;8.520;2024-02-21T09:44:39;100983.91;;;15.27;47.84
28428;BME280;15662;49.128;8.520;2024-02-21T09:47:11;100982.84;;;15.32;47.64
28428;BME280;15662;49.128;8.520;2024-02-21T09:49:42;100980.88;;;15.37;47.63
28428;BME280;15662;49.128;8.520;2024-02-21T09:52:12;100964.53;;;15.45;47.63
28428;BME280;15662;49.128;8.520;2024-02-21T09:54:41;100966.81;;;15.56;47.46
28428;BME280;15662;49.128;8.520;2024-02-21T09:57:12;100970.31;;;15.58;47.37
28428;BME280;15662;49.128;8.520;2024-02-21T09:59:40;100958.56;;;15.63;47.20
28428;BME280;15662;49.128;8.520;2024-02-21T10:02:10;100948.50;;;15.70;47.24
28428;BME280;15662;49.128;8.520;2024-02-21T10:04:40;100952.75;;;15.76;47.11
28428;BME280;15662;49.128;8.520;2024-02-21T10:07:08;100949.97;;;15.79;47.03
28428;BME280;15662;49.128;8.520;2024-02-21T10:09:36;100932.72;;;15.87;46.93
28428;BME280;15662;49.128;8.520;2024-02-21T10:12:11;100934.09;;;15.97;46.70
28428;BME280;15662;49.128;8.520;2024-02-21T10:14:40;100920.47;;;16.04;46.95
28428;BME280;15662;49.128;8.520;2024-02-21T10:17:15;100921.94;;;16.12;46.60
28428;BME280;15662;49.128;8.520;2024-02-21T10:19:45;100927.88;;;16.19;46.86
28428;BME280;15662;49.128;8.520;2024-02-21T10:22:17;100917.84;;;16.25;46.49
28428;BME280;15662;49.128;8.520;2024-02-21T10:24:45;100920.28;;;16.30;46.34
28428;BME280;15662;49.128;8.520;2024-02-21T10:27:13;100922.78;;;16.35;46.24
28428;BME280;15662;49.128;8.520;2024-02-21T10:29:41;100915.44;;;16.40;46.21
28428;BME280;15662;49.128;8.520;2024-02-21T10:32:13;100909.09;;;16.42;45.93
28428;BME280;15662;49.128;8.520;2024-02-21T10:34:42;100908.91;;;16.47;45.89
28428;BME280;15662;49.128;8.520;2024-02-21T10:37:12;100908.78;;;16.50;45.88
28428;BME280;15662;49.128;8.520;2024-02-21T10:39:41;100902.31;;;16.56;45.53
28428;BME280;15662;49.128;8.520;2024-02-21T10:42:11;100904.84;;;16.59;45.58
28428;BME280;15662;49.128;8.520;2024-02-21T10:44:40;100902.91;;;16.62;45.40
28428;BME280;15662;49.128;8.520;2024-02-21T10:47:11;100899.03;;;16.69;45.37
28428;BME280;15662;49.128;8.520;2024-02-21T10:49:41;100895.28;;;16.75;45.12
28428;BME280;15662;49.128;8.520;2024-02-21T10:55:07;100873.63;;;16.80;44.80
28428;BME280;15662;49.128;8.520;2024-02-21T10:57:38;100867.41;;;16.79;44.91
28428;BME280;15662;49.128;8.520;2024-02-21T11:00:07;100861.81;;;16.85;44.79
28428;BME280;15662;49.128;8.520;2024-02-21T11:02:40;100856.19;;;16.91;44.75
28428;BME280;15662;49.128;8.520;2024-02-21T11:05:08;100850.63;;;16.96;44.38
28428;BME280;15662;49.128;8.520;2024-02-21T11:07:38;100850.34;;;17.02;44.56
28428;BME280;15662;49.128;8.520;2024-02-21T11:10:24;100849.13;;;17.09;44.36
28428;BME280;15662;49.128;8.520;2024-02-21T11:13:08;100845.38;;;17.13;44.17
28428;BME280;15662;49.128;8.520;2024-02-21T11:15:36;100832.78;;;17.15;44.18
28428;BME280;15662;49.128;8.520;2024-02-21T11:18:03;100829.81;;;17.21;44.09
28428;BME280;15662;49.128;8.520;2024-02-21T11:20:36;100825.22;;;17.25;43.92
28428;BME280;15662;49.128;8.520;2024-02-21T11:23:04;100833.16;;;17.26;43.98
28428;BME280;15662;49.128;8.520;2024-02-21T11:25:32;100824.03;;;17.31;43.80
28428;BME280;15662;49.128;8.520;2024-02-21T11:28:03;100825.44;;;17.39;43.78
28428;BME280;15662;49.128;8.520;2024-02-21T11:30:31;100811.97;;;17.41;43.58
28428;BME280;15662;49.128;8.520;2024-02-21T11:33:05;100810.00;;;17.44;43.46
28428;BME280;15662;49.128;8.520;2024-02-21T11:35:34;100799.13;;;17.47;43.48
28428;BME280;15662;49.128;8.520;2024-02-21T11:40:39;100794.16;;;17.59;43.23
28428;BME280;15662;49.128;8.520;2024-02-21T11:43:08;100788.63;;;17.62;43.22
28428;BME280;15662;49.128;8.520;2024-02-21T11:45:35;100781.22;;;17.67;43.13
28428;BME280;15662;49.128;8.520;2024-02-21T11:48:04;100780.03;;;17.72;42.90
28428;BME280;15662;49.128;8.520;2024-02-21T11:50:36;100771.03;;;17.75;42.83
28428;BME280;15662;49.128;8.520;2024-02-21T11:53:03;100754.09;;;17.74;42.77
28428;BME280;15662;49.128;8.520;2024-02-21T11:55:31;100757.53;;;17.76;42.49
28428;BME280;15662;49.128;8.520;2024-02-21T11:57:59;100753.13;;;17.75;42.17
28428;BME280;15662;49.128;8.520;2024-02-21T12:00:26;100746.91;;;17.75;42.42
28428;BME280;15662;49.128;8.520;2024-02-21T12:02:55;100739.63;;;17.77;42.30
28428;BME280;15662;49.128;8.520;2024-02-21T12:05:27;100740.72;;;17.73;42.09
28428;BME280;15662;49.128;8.520;2024-02-21T12:07:56;100730.19;;;17.68;42.14
28428;BME280;15662;49.128;8.520;2024-02-21T12:10:28;100729.94;;;17.74;41.91
28428;BME280;15662;49.128;8.520;2024-02-21T12:13:09;100709.28;;;17.76;41.67
28428;BME280;15662;49.128;8.520;2024-02-21T12:15:38;100710.31;;;17.74;41.90
28428;BME280;15662;49.128;8.520;2024-02-21T12:18:05;100710.25;;;17.75;41.79
28428;BME280;15662;49.128;8.520;2024-02-21T12:20:33;100705.66;;;17.77;41.81
28428;BME280;15662;49.128;8.520;2024-02-21T12:23:01;100702.75;;;17.82;41.75
28428;BME280;15662;49.128;8.520;2024-02-21T12:25:28;100697.31;;;17.84;41.64
28428;BME280;15662;49.128;8.520;2024-02-21T12:27:56;100683.91;;;17.84;41.62
28428;BME280;15662;49.128;8.520;2024-02-21T12:30:23;100682.00;;;17.86;41.56
28428;BME280;15662;49.128;8.520;2024-02-21T12:32:50;100680.91;;;17.90;41.60
28428;BME280;15662;49.128;8.520;2024-02-21T12:35:17;100677.28;;;17.91;41.51
28428;BME280;15662;49.128;8.520;2024-02-21T12:37:46;100664.72;;;17.91;41.36
28428;BME280;15662;49.128;8.520;2024-02-21T12:40:13;100662.88;;;17.93;41.31
28428;BME280;15662;49.128;8.520;2024-02-21T12:42:42;100646.78;;;17.93;41.04
28428;BME280;15662;49.128;8.520;2024-02-21T12:45:09;100653.06;;;17.92;41.04
28428;BME280;15662;49.128;8.520;2024-02-21T12:47:37;100656.53;;;17.94;40.91
28428;BME280;15662;49.128;8.520;2024-02-21T12:50:04;100652.91;;;17.95;40.76
28428;BME280;15662;49.128;8.520;2024-02-21T12:52:34;100642.28;;;17.94;40.75
28428;BME280;15662;49.128;8.520;2024-02-21T12:55:02;100632.31;;;17.96;40.76
28428;BME280;15662;49.128;8.520;2024-02-21T12:57:29;100628.78;;;17.95;40.49
28428;BME280;15662;49.128;8.520;2024-02-21T12:59:57;100623.66;;;17.91;40.35
28428;BME280;15662;49.128;8.520;2024-02-21T13:02:24;100615.06;;;17.84;40.01